Аэропорт: Якутск. Якутск

ICAO: UEEE

METAR:
2020-08-09 23:00:00
UEEE 092300Z 32004MPS 9999 SCT050CB 17/12 Q1002 R23L/290150 NOSIG RMK QFE743
METAR:
2020-08-09 20:00:00
TAF UEEE 092000Z 0921/1103 30003G08MPS 3200 FU SCT020CB BKN070 TEMPO 0921/0923 VRB01MPS 0500 FG VV003 TEMPO 0923/1015 VRB16MPS 1000 TSRA FU